createdAt,value
2018-11-27T00:00:07.594Z,62.97
2018-11-27T00:02:35.769Z,59.70
2018-11-27T00:05:04.074Z,59.87
2018-11-27T00:07:32.270Z,57.37
2018-11-27T00:10:00.460Z,52.80
2018-11-27T00:12:28.658Z,61.63
2018-11-27T00:14:56.862Z,56.97
2018-11-27T00:17:25.026Z,60.57
2018-11-27T00:19:53.209Z,55.97
2018-11-27T00:22:21.383Z,61.97
2018-11-27T00:24:49.576Z,53.90
2018-11-27T00:27:17.742Z,65.17
2018-11-27T00:29:45.986Z,53.77
2018-11-27T00:32:14.158Z,53.33
2018-11-27T00:34:42.340Z,57.93
2018-11-27T00:37:10.527Z,55.70
2018-11-27T00:39:38.693Z,55.47
2018-11-27T00:42:06.909Z,55.43
2018-11-27T00:44:35.084Z,54.70
2018-11-27T00:47:03.294Z,53.57
2018-11-27T00:49:31.488Z,52.83
2018-11-27T00:51:59.669Z,54.97
2018-11-27T00:54:27.915Z,55.60
2018-11-27T00:56:56.117Z,58.53
2018-11-27T00:59:24.282Z,48.03
2018-11-27T01:01:52.467Z,50.10
2018-11-27T01:04:20.648Z,46.80
2018-11-27T01:06:48.822Z,51.47
2018-11-27T01:09:17.075Z,49.53
2018-11-27T01:11:45.285Z,49.87
2018-11-27T01:14:13.461Z,52.47
2018-11-27T01:16:41.658Z,49.10
2018-11-27T01:19:09.885Z,47.87
2018-11-27T01:21:38.057Z,45.07
2018-11-27T01:24:06.493Z,45.03
2018-11-27T01:26:34.695Z,47.23
2018-11-27T01:29:02.850Z,45.07
2018-11-27T01:31:31.029Z,48.10
2018-11-27T01:33:59.216Z,45.67
2018-11-27T01:36:27.397Z,42.10
2018-11-27T01:38:55.590Z,41.83
2018-11-27T01:41:23.758Z,45.23
2018-11-27T01:43:51.941Z,45.50
2018-11-27T01:46:20.148Z,40.47
2018-11-27T01:48:48.358Z,40.70
2018-11-27T01:51:16.554Z,43.13
2018-11-27T01:53:44.740Z,40.07
2018-11-27T01:56:12.930Z,40.27
2018-11-27T01:58:41.115Z,39.37
2018-11-27T02:01:09.293Z,33.70
2018-11-27T02:03:37.533Z,35.80
2018-11-27T02:06:06.177Z,37.07
2018-11-27T02:08:34.371Z,31.70
2018-11-27T02:11:02.581Z,30.43
2018-11-27T02:13:30.756Z,34.40
2018-11-27T02:15:58.948Z,31.00
2018-11-27T02:18:27.141Z,32.17
2018-11-27T02:20:55.365Z,29.70
2018-11-27T02:23:23.542Z,32.00
2018-11-27T02:25:52.146Z,30.10
2018-11-27T02:28:20.321Z,29.07
2018-11-27T02:30:48.518Z,32.40
2018-11-27T02:33:16.748Z,29.30
2018-11-27T02:35:44.921Z,29.57
2018-11-27T02:38:13.102Z,31.90
2018-11-27T02:40:41.302Z,27.87
2018-11-27T02:43:09.477Z,30.63
2018-11-27T02:45:37.650Z,28.77
2018-11-27T02:48:07.180Z,27.50
2018-11-27T02:50:35.367Z,29.63
2018-11-27T02:53:03.747Z,24.97
2018-11-27T02:55:31.934Z,25.53
2018-11-27T02:58:00.133Z,25.53
2018-11-27T03:00:28.731Z,22.13
2018-11-27T03:02:56.973Z,24.40
2018-11-27T03:05:29.353Z,23.30
2018-11-27T03:07:57.575Z,23.63
2018-11-27T03:10:25.762Z,21.07
2018-11-27T03:12:53.929Z,24.27
2018-11-27T03:15:22.143Z,22.77
2018-11-27T03:17:50.314Z,22.70
2018-11-27T03:20:18.933Z,21.30
2018-11-27T03:22:47.137Z,21.10
2018-11-27T03:25:19.213Z,20.03
2018-11-27T03:27:48.424Z,25.17
2018-11-27T03:30:17.639Z,21.63
2018-11-27T03:32:45.937Z,22.53
2018-11-27T03:35:16.062Z,21.17
2018-11-27T03:37:44.626Z,24.00
2018-11-27T03:40:15.733Z,24.40
2018-11-27T03:42:43.966Z,20.50
2018-11-27T03:45:13.248Z,24.10
2018-11-27T03:47:41.474Z,23.53
2018-11-27T03:50:14.913Z,23.40
2018-11-27T03:52:43.093Z,21.03
2018-11-27T03:55:12.104Z,22.67
2018-11-27T03:57:40.309Z,22.63
2018-11-27T04:00:15.905Z,21.40
2018-11-27T04:02:44.581Z,24.63
2018-11-27T04:05:13.357Z,21.13
2018-11-27T04:07:41.539Z,24.40
2018-11-27T04:10:14.179Z,20.47
2018-11-27T04:12:42.382Z,26.33
2018-11-27T04:15:11.236Z,24.00
2018-11-27T04:17:39.419Z,23.30
2018-11-27T04:20:08.977Z,20.40
2018-11-27T04:22:37.439Z,21.80
2018-11-27T04:25:09.196Z,19.47
2018-11-27T04:27:37.379Z,27.10
2018-11-27T04:30:07.737Z,22.20
2018-11-27T04:32:35.915Z,21.53
2018-11-27T04:35:04.284Z,22.17
2018-11-27T04:37:32.446Z,23.73
2018-11-27T04:40:00.654Z,26.70
2018-11-27T04:42:28.833Z,24.20
2018-11-27T04:44:57.038Z,24.13
2018-11-27T04:47:25.218Z,29.47
2018-11-27T04:49:53.414Z,26.40
2018-11-27T04:52:21.595Z,28.63
2018-11-27T04:54:49.816Z,24.17
2018-11-27T04:57:17.981Z,26.53
2018-11-27T04:59:46.174Z,25.40
2018-11-27T05:02:14.356Z,25.43
2018-11-27T05:04:42.529Z,26.43
2018-11-27T05:07:10.702Z,28.40
2018-11-27T05:09:38.877Z,25.33
2018-11-27T05:12:07.053Z,28.53
2018-11-27T05:14:35.238Z,26.93
2018-11-27T05:17:03.392Z,27.13
2018-11-27T05:19:31.614Z,25.50
2018-11-27T05:21:59.850Z,23.73
2018-11-27T05:24:28.111Z,26.17
2018-11-27T05:26:56.290Z,24.63
2018-11-27T05:29:24.484Z,23.83
2018-11-27T05:31:52.700Z,28.47
2018-11-27T05:34:20.892Z,27.67
2018-11-27T05:36:49.104Z,25.97
2018-11-27T05:39:17.301Z,26.60
2018-11-27T05:41:45.513Z,26.90
2018-11-27T05:44:13.705Z,26.77
2018-11-27T05:46:41.906Z,27.10
2018-11-27T05:49:10.134Z,25.10
2018-11-27T05:51:39.062Z,25.63
2018-11-27T05:54:07.244Z,23.80
2018-11-27T05:56:35.483Z,23.53
2018-11-27T05:59:03.706Z,26.87
2018-11-27T06:01:31.878Z,26.07
2018-11-27T06:04:00.062Z,26.00
2018-11-27T06:06:28.257Z,29.47
2018-11-27T06:08:57.004Z,27.60
2018-11-27T06:11:24.809Z,25.97
2018-11-27T06:13:53.049Z,23.27
2018-11-27T06:16:21.401Z,23.07
2018-11-27T06:18:49.588Z,23.40
2018-11-27T06:21:17.793Z,25.20
2018-11-27T06:23:46.003Z,25.20
2018-11-27T06:26:14.191Z,26.33
2018-11-27T06:28:42.407Z,23.10
2018-11-27T06:31:10.604Z,23.97
2018-11-27T06:33:38.934Z,28.70
2018-11-27T06:36:07.329Z,27.17
2018-11-27T06:38:35.685Z,31.23
2018-11-27T06:41:03.909Z,28.23
2018-11-27T06:43:32.137Z,30.30
2018-11-27T06:46:00.345Z,35.40
2018-11-27T06:48:28.577Z,27.07
2018-11-27T06:50:56.761Z,28.90
2018-11-27T06:53:24.989Z,28.00
2018-11-27T06:55:54.064Z,29.60
2018-11-27T06:58:22.274Z,26.30
2018-11-27T07:00:50.518Z,27.40
2018-11-27T07:03:18.738Z,27.03
2018-11-27T07:05:46.921Z,27.80
2018-11-27T07:08:15.205Z,25.50
2018-11-27T07:10:44.670Z,28.60
2018-11-27T07:13:15.421Z,25.80
2018-11-27T07:15:43.705Z,28.17
2018-11-27T07:18:11.936Z,30.60
2018-11-27T07:20:40.082Z,30.23
2018-11-27T07:23:08.333Z,27.20
2018-11-27T07:25:37.009Z,26.87
2018-11-27T07:28:05.328Z,29.20
2018-11-27T07:30:33.489Z,27.63
2018-11-27T07:33:01.686Z,25.57
2018-11-27T07:35:29.926Z,26.70
2018-11-27T07:37:58.047Z,27.47
2018-11-27T07:40:27.507Z,27.60
2018-11-27T07:42:58.994Z,27.00
2018-11-27T07:45:27.179Z,27.40
2018-11-27T07:47:55.359Z,30.40
2018-11-27T07:50:23.542Z,26.73
2018-11-27T07:52:51.726Z,25.70
2018-11-27T07:55:21.058Z,28.27
2018-11-27T07:57:49.617Z,26.23
2018-11-27T08:00:21.294Z,26.33
2018-11-27T08:02:51.556Z,27.03
2018-11-27T08:05:22.821Z,26.23
2018-11-27T08:07:53.001Z,27.43
2018-11-27T08:10:22.321Z,27.20
2018-11-27T08:12:50.521Z,28.20
2018-11-27T08:15:20.021Z,27.63
2018-11-27T08:17:48.254Z,23.87
2018-11-27T08:20:21.469Z,24.57
2018-11-27T08:22:49.673Z,24.13
2018-11-27T08:25:17.854Z,23.43
2018-11-27T08:27:46.039Z,25.50
2018-11-27T08:30:16.471Z,26.27
2018-11-27T08:32:44.682Z,25.57
2018-11-27T08:35:20.790Z,23.53
2018-11-27T08:37:49.954Z,25.67
2018-11-27T08:40:19.390Z,26.57
2018-11-27T08:42:47.604Z,22.27
2018-11-27T08:45:18.684Z,26.67
2018-11-27T08:47:47.645Z,24.63
2018-11-27T08:50:18.035Z,25.20
2018-11-27T08:53:03.016Z,25.53
2018-11-27T08:55:40.523Z,23.80
2018-11-27T08:58:11.614Z,20.17
2018-11-27T09:00:39.796Z,21.80
2018-11-27T09:03:07.994Z,25.50
2018-11-27T09:05:36.169Z,26.80
2018-11-27T09:08:04.343Z,25.37
2018-11-27T09:10:32.525Z,22.27
2018-11-27T09:13:01.037Z,20.03
2018-11-27T09:15:28.936Z,19.27
2018-11-27T09:17:58.879Z,22.47
2018-11-27T09:20:27.048Z,22.37
2018-11-27T09:22:55.229Z,21.77
2018-11-27T09:25:23.421Z,21.30
2018-11-27T09:27:51.601Z,22.63
2018-11-27T09:30:21.444Z,21.83
2018-11-27T09:32:49.725Z,21.10
2018-11-27T09:35:17.979Z,22.77
2018-11-27T09:37:46.166Z,21.57
2018-11-27T09:40:16.553Z,24.20
2018-11-27T09:42:44.741Z,19.40
2018-11-27T09:45:14.177Z,23.60
2018-11-27T09:47:43.003Z,20.47
2018-11-27T09:50:12.264Z,18.60
2018-11-27T09:52:40.549Z,22.33
2018-11-27T09:55:16.489Z,19.03
2018-11-27T09:57:44.723Z,22.00
2018-11-27T10:00:30.208Z,20.67
2018-11-27T10:03:02.620Z,18.57
2018-11-27T10:05:30.810Z,19.07
2018-11-27T10:07:58.992Z,18.27
2018-11-27T10:10:27.153Z,18.13
2018-11-27T10:12:55.338Z,18.83
2018-11-27T10:15:24.629Z,20.30
2018-11-27T10:17:56.081Z,19.07
2018-11-27T10:20:25.418Z,18.30
2018-11-27T10:22:53.610Z,18.97
2018-11-27T10:25:21.805Z,19.10
2018-11-27T10:27:50.018Z,21.00
2018-11-27T10:30:23.446Z,19.63
2018-11-27T10:32:52.810Z,18.50
2018-11-27T10:35:24.067Z,18.40
2018-11-27T10:37:52.245Z,18.40
2018-11-27T10:40:20.458Z,19.97
2018-11-27T10:42:48.733Z,18.80
2018-11-27T10:45:17.858Z,20.90
2018-11-27T10:47:47.150Z,18.90
2018-11-27T10:50:16.174Z,19.93
2018-11-27T10:52:45.557Z,20.30
2018-11-27T10:55:14.705Z,20.83
2018-11-27T10:57:42.961Z,18.73
2018-11-27T11:00:34.769Z,19.10
2018-11-27T11:03:08.269Z,19.17
2018-11-27T11:05:37.432Z,22.00
2018-11-27T11:08:05.661Z,21.50
2018-11-27T11:10:33.837Z,23.73
2018-11-27T11:13:02.052Z,19.37
2018-11-27T11:15:30.196Z,20.70
2018-11-27T11:17:58.399Z,19.50
2018-11-27T11:20:26.580Z,20.70
2018-11-27T11:22:54.773Z,22.70
2018-11-27T11:25:24.084Z,21.43
2018-11-27T11:27:54.576Z,22.03
2018-11-27T11:30:23.240Z,22.70
2018-11-27T11:32:51.553Z,19.63
2018-11-27T11:35:19.893Z,20.90
2018-11-27T13:48:33.735Z,16.63
2018-11-27T13:51:02.181Z,17.50
2018-11-27T13:53:30.436Z,17.13
2018-11-27T13:55:58.779Z,20.13
2018-11-27T13:58:27.018Z,17.40
2018-11-27T14:00:55.298Z,20.37
2018-11-27T14:03:23.583Z,17.43
2018-11-27T14:05:51.864Z,18.23
2018-11-27T14:08:20.172Z,18.00
2018-11-27T14:10:48.515Z,18.53
2018-11-27T14:13:16.789Z,16.70
2018-11-27T14:15:45.123Z,18.30
2018-11-27T14:18:13.432Z,18.10
2018-11-27T14:20:41.793Z,18.60
2018-11-27T14:23:10.066Z,17.40
2018-11-27T14:25:38.370Z,17.13
2018-11-27T14:28:06.628Z,15.53
2018-11-27T14:30:34.896Z,15.17
2018-11-27T14:33:03.233Z,15.00
2018-11-27T14:35:31.487Z,15.43
2018-11-27T14:37:59.973Z,17.60
2018-11-27T14:40:28.514Z,17.27
2018-11-27T14:42:56.745Z,15.90
2018-11-27T14:45:26.129Z,18.60
2018-11-27T14:47:56.201Z,16.20
2018-11-27T14:50:24.398Z,19.10
2018-11-27T14:52:52.604Z,17.13
2018-11-27T14:55:24.146Z,15.30
2018-11-27T14:57:52.390Z,17.10
2018-11-27T15:00:21.676Z,16.27
2018-11-27T15:02:49.870Z,16.57
2018-11-27T15:05:19.718Z,14.63
2018-11-27T15:07:47.886Z,15.23
2018-11-27T15:10:16.049Z,15.80
2018-11-27T15:12:44.218Z,16.50
2018-11-27T15:15:13.398Z,15.90
2018-11-27T15:17:41.608Z,15.00
2018-11-27T15:20:17.434Z,15.83
2018-11-27T15:22:45.769Z,15.40
2018-11-27T15:25:13.999Z,15.53
2018-11-27T15:27:42.165Z,16.43
2018-11-27T15:30:12.843Z,17.30
2018-11-27T15:32:41.017Z,16.53
2018-11-27T15:35:10.029Z,16.17
2018-11-27T15:37:38.206Z,17.70
2018-11-27T15:40:24.951Z,16.23
2018-11-27T15:42:53.344Z,16.23
2018-11-27T15:45:24.523Z,17.33
2018-11-27T15:47:52.705Z,19.90
2018-11-27T15:50:20.890Z,22.57
2018-11-27T15:52:49.089Z,24.03
2018-11-27T15:55:27.194Z,19.80
2018-11-27T15:57:56.935Z,20.90
2018-11-27T16:00:25.106Z,23.90
2018-11-27T16:02:53.269Z,19.33
2018-11-27T16:05:21.450Z,20.83
2018-11-27T16:07:49.597Z,22.73
2018-11-27T16:10:18.785Z,22.53
2018-11-27T16:12:46.960Z,20.73
2018-11-27T16:15:16.154Z,19.90
2018-11-27T16:17:44.349Z,21.80
2018-11-27T16:20:21.737Z,20.07
2018-11-27T16:22:50.886Z,19.40
2018-11-27T16:25:20.301Z,19.77
2018-11-27T16:27:48.469Z,21.07
2018-11-27T16:30:21.765Z,19.70
2018-11-27T16:32:49.981Z,20.13
2018-11-27T16:35:18.157Z,21.43
2018-11-27T16:37:47.702Z,19.27
2018-11-27T16:40:19.182Z,19.47
2018-11-27T16:42:47.391Z,21.40
2018-11-27T16:45:18.777Z,20.33
2018-11-27T16:47:47.210Z,17.37
2018-11-27T16:50:16.161Z,17.27
2018-11-27T16:52:44.622Z,15.70
2018-11-27T16:55:13.818Z,20.30
2018-11-27T16:57:42.341Z,20.00
2018-11-27T17:00:15.382Z,17.33
2018-11-27T17:02:43.753Z,19.00
2018-11-27T17:05:11.993Z,20.60
2018-11-27T17:07:40.314Z,23.70
2018-11-27T17:10:11.348Z,23.47
2018-11-27T17:12:39.705Z,21.73
2018-11-27T17:15:11.029Z,17.50
2018-11-27T17:17:39.376Z,21.70
2018-11-27T17:20:13.493Z,19.80
2018-11-27T17:22:41.811Z,18.20
2018-11-27T17:25:10.922Z,24.80
2018-11-27T17:27:39.246Z,19.53
2018-11-27T17:30:12.374Z,23.10
2018-11-27T17:32:40.730Z,20.43
2018-11-27T17:35:10.528Z,19.97
2018-11-27T17:37:38.777Z,27.07
2018-11-27T17:40:09.733Z,23.40
2018-11-27T17:42:39.369Z,23.23
2018-11-27T17:45:13.536Z,24.87
2018-11-27T17:47:42.101Z,21.90
2018-11-27T17:50:12.702Z,20.47
2018-11-27T17:52:41.224Z,24.73
2018-11-27T17:55:10.477Z,19.50
2018-11-27T17:57:38.664Z,22.10
2018-11-27T18:00:16.329Z,23.13
2018-11-27T18:02:46.224Z,26.47
2018-11-27T18:05:14.408Z,23.20
2018-11-27T18:07:42.581Z,27.43
2018-11-27T18:10:11.530Z,25.97
2018-11-27T18:12:39.670Z,25.70
2018-11-27T18:15:10.939Z,21.83
2018-11-27T18:17:39.089Z,25.63
2018-11-27T18:20:08.800Z,22.03
2018-11-27T18:22:37.026Z,23.37
2018-11-27T18:25:05.886Z,21.73
2018-11-27T18:27:34.342Z,26.30
2018-11-27T18:30:02.839Z,27.30
2018-11-27T18:32:31.295Z,27.07
2018-11-27T18:34:59.573Z,26.50
2018-11-27T18:37:27.875Z,29.63
2018-11-27T18:39:56.514Z,25.07
2018-11-27T18:42:25.574Z,22.33
2018-11-27T18:44:53.957Z,25.80
2018-11-27T18:47:22.525Z,28.77
2018-11-27T18:49:50.745Z,22.77
2018-11-27T18:52:20.031Z,27.40
2018-11-27T18:54:48.225Z,28.53
2018-11-27T18:57:16.505Z,27.27
2018-11-27T18:59:45.890Z,29.17
2018-11-27T19:02:14.161Z,27.43
2018-11-27T19:04:42.501Z,27.70
2018-11-27T19:07:10.836Z,33.80
2018-11-27T19:09:39.182Z,29.57
2018-11-27T19:12:07.469Z,26.47
2018-11-27T19:14:35.729Z,27.57
2018-11-27T19:17:04.093Z,28.30
2018-11-27T19:19:32.459Z,28.60
2018-11-27T19:22:00.910Z,32.07
2018-11-27T19:24:29.680Z,33.83
2018-11-27T19:26:58.024Z,32.43
2018-11-27T19:29:26.461Z,32.00
2018-11-27T19:31:55.178Z,24.83
2018-11-27T19:34:25.296Z,33.87
2018-11-27T19:36:53.710Z,27.00
2018-11-27T19:39:22.341Z,29.97
2018-11-27T19:41:50.738Z,27.70
2018-11-27T19:44:19.362Z,32.27
2018-11-27T19:46:47.913Z,29.23
2018-11-27T19:49:16.107Z,31.03
2018-11-27T19:51:44.513Z,28.50
2018-11-27T19:54:12.759Z,33.13
2018-11-27T19:56:40.944Z,32.90
2018-11-27T19:59:09.118Z,26.30
2018-11-27T20:01:37.299Z,32.47
2018-11-27T20:04:05.846Z,30.50
2018-11-27T20:06:34.105Z,31.80
2018-11-27T20:09:02.292Z,28.30
2018-11-27T20:11:30.744Z,30.87
2018-11-27T20:13:58.950Z,34.77
2018-11-27T20:16:27.194Z,28.60
2018-11-27T20:18:55.370Z,32.43
2018-11-27T20:21:23.589Z,28.03
2018-11-27T20:23:51.769Z,30.93
2018-11-27T20:26:19.961Z,28.47
2018-11-27T20:28:48.144Z,27.53
2018-11-27T20:31:16.370Z,25.80
2018-11-27T20:33:44.554Z,28.80
2018-11-27T20:36:12.772Z,30.50
2018-11-27T20:38:41.076Z,31.70
2018-11-27T20:41:09.290Z,28.70
2018-11-27T20:43:37.454Z,32.90
2018-11-27T20:46:06.050Z,29.43
2018-11-27T20:48:34.308Z,30.60
2018-11-27T20:51:03.930Z,34.03
2018-11-27T20:53:31.025Z,31.63
2018-11-27T20:55:59.226Z,32.53
2018-11-27T20:58:27.446Z,33.30
2018-11-27T21:00:55.708Z,33.13
2018-11-27T21:03:23.943Z,34.50
2018-11-27T21:05:52.216Z,30.70
2018-11-27T21:08:20.434Z,31.37
2018-11-27T21:10:48.881Z,30.25
2018-11-27T21:13:17.072Z,31.37
2018-11-27T21:15:45.380Z,36.70
2018-11-27T21:18:13.745Z,30.35
2018-11-27T21:20:42.870Z,33.77
2018-11-27T21:23:11.152Z,30.08
2018-11-27T21:25:46.150Z,34.17
2018-11-27T21:28:16.642Z,33.27
2018-11-27T21:30:46.168Z,28.65
2018-11-27T21:33:14.354Z,33.10
2018-11-27T21:35:42.559Z,31.87
2018-11-27T21:38:10.737Z,31.80
2018-11-27T21:40:38.964Z,34.67
2018-11-27T21:43:08.288Z,35.98
2018-11-27T21:45:36.756Z,32.45
2018-11-27T21:48:04.976Z,37.03
2018-11-27T21:50:38.536Z,31.93
2018-11-27T21:53:06.789Z,33.83
2018-11-27T21:55:35.533Z,33.10
2018-11-27T21:58:03.241Z,32.60
2018-11-27T22:00:31.469Z,38.98
2018-11-27T22:02:59.683Z,35.20
2018-11-27T22:05:27.883Z,32.23
2018-11-27T22:07:56.126Z,31.82
2018-11-27T22:10:24.881Z,34.80
2018-11-27T22:12:58.128Z,31.97
2018-11-27T22:15:32.718Z,29.55
2018-11-27T22:18:01.034Z,35.05
2018-11-27T22:20:29.292Z,36.17
2018-11-27T22:22:57.505Z,34.88
2018-11-27T22:25:25.714Z,31.23
2018-11-27T22:27:53.903Z,31.95
2018-11-27T22:30:22.130Z,33.10
2018-11-27T22:32:52.568Z,33.55
2018-11-27T22:35:20.772Z,31.77
2018-11-27T22:37:49.005Z,30.17
2018-11-27T22:40:18.468Z,31.67
2018-11-27T22:42:47.105Z,37.03
2018-11-27T22:45:19.841Z,32.27
2018-11-27T22:47:48.028Z,31.27
2018-11-27T22:50:18.209Z,34.73
2018-11-27T22:52:46.431Z,31.97
2018-11-27T22:55:14.708Z,31.43
2018-11-27T22:57:42.925Z,33.93
2018-11-27T23:00:34.907Z,33.67
2018-11-27T23:03:03.164Z,33.25
2018-11-27T23:05:31.438Z,32.87
2018-11-27T23:07:59.660Z,35.52
2018-11-27T23:10:29.270Z,34.75
2018-11-27T23:12:57.498Z,35.05
2018-11-27T23:15:25.748Z,38.50
2018-11-27T23:17:53.983Z,38.53
2018-11-27T23:20:22.181Z,36.23
2018-11-27T23:22:50.386Z,34.43
2018-11-27T23:25:19.161Z,37.60
2018-11-27T23:27:47.556Z,32.63
2018-11-27T23:30:17.862Z,35.10
2018-11-27T23:32:46.156Z,35.40
2018-11-27T23:35:14.370Z,36.80
2018-11-27T23:37:42.593Z,35.30
2018-11-27T23:40:12.829Z,34.15
2018-11-27T23:42:41.219Z,38.00
2018-11-27T23:45:11.583Z,40.48
2018-11-27T23:47:39.769Z,36.20
2018-11-27T23:50:12.371Z,35.40
2018-11-27T23:52:40.597Z,36.95
2018-11-27T23:55:10.238Z,38.80
2018-11-27T23:57:38.639Z,34.45
